KEED

Needles Airport

Needles, California, USA
METAR KEED 171356Z AUTO 29004KT 10SM CLR 09/M03 A3013 RMK AO2 SLP194 T00941028
Observed Flight Rules
Dec-17 @ 13:56 UTC (33 minutes ago) Visual Flight Rules
Wind Visibility Clouds
290° at 4 knots 10 miles
  • Clear skies
Temperatures Readings
Current 9°C / 48°F
Dewpoint -3°C / 27°F
Humidity 43%
Altimeter 30.13" Hg
Pressure 1019.4 hPa
Elevation 302
METAR KEED 171356Z AUTO 29004KT 10SM CLR 09/M03 A3013 RMK AO2 SLP194 T00941028
Observed Flight Rules
Dec-17 @ 13:56 UTC
(33 minutes ago)
VFR
Wind Visibility
290° at 4 knots 10 miles
Clouds
  • Clear skies
Temperature Dewpoint
9°C / 48°F -3°C / 27°F
Humidity Altimeter Pressure
43% 30.13" Hg 1019.4 hPa